createdAt,value
2024-02-17T00:01:06.941Z,100327.38
2024-02-17T00:03:35.334Z,100329.91
2024-02-17T00:06:06.807Z,100329.91
2024-02-17T00:08:35.276Z,100326.53
2024-02-17T00:11:06.693Z,100329.19
2024-02-17T00:13:36.178Z,100326.59
2024-02-17T00:16:04.921Z,100322.28
2024-02-17T00:18:38.777Z,100323.97
2024-02-17T00:21:07.855Z,100322.19
2024-02-17T00:23:36.352Z,100328.28
2024-02-17T00:26:04.680Z,100326.56
2024-02-17T00:28:33.303Z,100319.69
2024-02-17T00:31:01.493Z,100324.03
2024-02-17T00:33:36.800Z,100318.03
2024-02-17T00:36:10.798Z,100319.81
2024-02-17T00:38:39.147Z,100319.84
2024-02-17T00:41:08.627Z,100318.97
2024-02-17T00:43:39.667Z,100311.19
2024-02-17T00:46:08.416Z,100315.56
2024-02-17T00:48:37.117Z,100314.75
2024-02-17T00:51:12.860Z,100319.94
2024-02-17T00:53:43.917Z,100310.38
2024-02-17T00:56:13.171Z,100304.28
2024-02-17T00:58:41.866Z,100310.47
2024-02-17T01:01:17.231Z,100304.38
2024-02-17T01:03:51.792Z,100311.41
2024-02-17T01:06:22.110Z,100307.94
2024-02-17T01:08:50.662Z,100294.13
2024-02-17T01:11:20.078Z,100307.03
2024-02-17T01:13:49.810Z,100307.00
2024-02-17T01:16:18.679Z,100305.19
2024-02-17T01:18:47.976Z,100306.06
2024-02-17T01:21:16.873Z,100300.81
2024-02-17T01:23:49.220Z,100308.63
2024-02-17T01:26:17.814Z,100306.88
2024-02-17T01:28:48.246Z,100299.97
2024-02-17T01:31:16.626Z,100305.09
2024-02-17T01:33:48.510Z,100303.41
2024-02-17T01:36:18.093Z,100301.69
2024-02-17T01:38:48.419Z,100302.59
2024-02-17T01:41:17.088Z,100299.16
2024-02-17T01:43:45.443Z,100296.59
2024-02-17T01:46:14.075Z,100287.09
2024-02-17T01:48:43.741Z,100290.50
2024-02-17T01:51:13.185Z,100291.31
2024-02-17T01:53:44.184Z,100292.22
2024-02-17T01:56:14.760Z,100282.69
2024-02-17T01:58:43.638Z,100284.44
2024-02-17T02:01:12.775Z,100287.03
2024-02-17T02:03:42.884Z,100287.03
2024-02-17T02:06:11.390Z,100287.03
2024-02-17T02:08:40.064Z,100283.63
2024-02-17T02:11:08.926Z,100281.94
2024-02-17T02:13:38.918Z,100281.97
2024-02-17T02:16:08.256Z,100270.78
2024-02-17T02:18:39.999Z,100275.13
2024-02-17T02:21:09.338Z,100269.13
2024-02-17T02:23:37.875Z,100271.72
2024-02-17T02:26:09.317Z,100271.72
2024-02-17T02:28:37.520Z,100268.22
2024-02-17T02:31:07.080Z,100265.59
2024-02-17T02:33:38.609Z,100268.06
2024-02-17T02:36:10.629Z,100267.19
2024-02-17T02:38:40.101Z,100273.19
2024-02-17T02:41:10.052Z,100269.69
2024-02-17T02:43:38.816Z,100268.78
2024-02-17T02:46:07.836Z,100261.81
2024-02-17T02:48:36.342Z,100259.09
2024-02-17T02:51:05.186Z,100259.06
2024-02-17T02:53:33.693Z,100257.25
2024-02-17T02:56:02.892Z,100258.94
2024-02-17T02:58:33.830Z,100263.22
2024-02-17T03:01:02.417Z,100259.69
2024-02-17T03:03:32.643Z,100268.25
2024-02-17T03:06:01.369Z,100268.22
2024-02-17T03:08:30.100Z,100259.53
2024-02-17T03:10:58.961Z,100260.41
2024-02-17T03:13:29.130Z,100260.41
2024-02-17T03:16:00.062Z,100260.41
2024-02-17T03:18:31.206Z,100257.84
2024-02-17T03:21:00.044Z,100254.34
2024-02-17T03:23:28.621Z,100255.31
2024-02-17T03:25:57.260Z,100263.16
2024-02-17T03:28:25.996Z,100257.13
2024-02-17T03:30:55.382Z,100262.38
2024-02-17T03:33:25.377Z,100266.69
2024-02-17T03:35:53.919Z,100265.81
2024-02-17T03:38:22.310Z,100266.69
2024-02-17T03:40:50.908Z,100263.22
2024-02-17T03:43:19.162Z,100266.66
2024-02-17T03:45:48.064Z,100267.59
2024-02-17T03:48:19.476Z,100276.16
2024-02-17T03:50:51.379Z,100280.44
2024-02-17T03:53:20.323Z,100276.91
2024-02-17T03:55:48.607Z,100272.53
2024-02-17T03:58:17.135Z,100276.00
2024-02-17T04:00:46.656Z,100274.19
2024-02-17T04:03:15.019Z,100277.56
2024-02-17T04:05:43.467Z,100274.03
2024-02-17T04:08:13.092Z,100272.19
2024-02-17T04:10:41.621Z,100272.13
2024-02-17T04:13:10.474Z,100275.47
2024-02-17T04:15:40.566Z,100268.41
2024-02-17T04:18:10.121Z,100263.97
2024-02-17T04:20:41.944Z,100271.66
2024-02-17T04:23:10.905Z,100266.44
2024-02-17T04:25:43.143Z,100279.41
2024-02-17T04:28:11.459Z,100279.38
2024-02-17T04:30:39.914Z,100271.59
2024-02-17T04:33:08.659Z,100275.00
2024-02-17T04:35:37.246Z,100274.03
2024-02-17T04:38:06.151Z,100275.72
2024-02-17T04:40:34.931Z,100272.25
2024-02-17T04:43:05.193Z,100268.66
2024-02-17T04:45:33.639Z,100279.81
2024-02-17T04:48:02.013Z,100278.03
2024-02-17T04:50:30.309Z,100279.69
2024-02-17T04:53:01.779Z,100273.56
2024-02-17T04:55:31.545Z,100270.03
2024-02-17T04:58:00.151Z,100272.59
2024-02-17T05:00:30.559Z,100279.50
2024-02-17T05:03:01.290Z,100272.53
2024-02-17T05:05:29.561Z,100279.41
2024-02-17T05:07:58.258Z,100272.34
2024-02-17T05:10:26.580Z,100277.44
2024-02-17T05:12:54.998Z,100276.50
2024-02-17T05:15:23.377Z,100279.06
2024-02-17T05:17:53.651Z,100279.81
2024-02-17T05:20:22.368Z,100288.47
2024-02-17T05:22:50.479Z,100284.84
2024-02-17T05:25:19.910Z,100280.50
2024-02-17T05:27:48.440Z,100288.19
2024-02-17T05:30:18.794Z,100294.16
2024-02-17T05:32:48.149Z,100298.41
2024-02-17T05:35:18.273Z,100301.66
2024-02-17T05:37:50.113Z,100295.44
2024-02-17T05:40:18.595Z,100300.53
2024-02-17T05:42:47.162Z,100309.13
2024-02-17T05:45:15.461Z,100302.09
2024-02-17T05:47:46.782Z,100307.22
2024-02-17T05:50:21.833Z,100308.97
2024-02-17T05:52:55.278Z,100315.81
2024-02-17T05:55:23.948Z,100315.75
2024-02-17T05:57:52.581Z,100317.41
2024-02-17T06:00:23.533Z,100319.97
2024-02-17T06:02:55.467Z,100326.78
2024-02-17T06:05:25.796Z,100327.50
2024-02-17T06:07:54.440Z,100320.50
2024-02-17T06:10:22.828Z,100317.75
2024-02-17T06:12:51.923Z,100316.72
2024-02-17T06:15:23.177Z,100324.34
2024-02-17T06:18:11.687Z,100327.56
2024-02-17T06:20:59.617Z,100324.72
2024-02-17T06:23:30.876Z,100329.72
2024-02-17T06:25:59.546Z,100327.78
2024-02-17T06:28:30.169Z,100330.97
2024-02-17T06:31:06.312Z,100327.16
2024-02-17T06:33:36.730Z,100338.09
2024-02-17T06:36:10.889Z,100335.09
2024-02-17T06:38:43.077Z,100349.53
2024-02-17T06:41:13.299Z,100349.25
2024-02-17T06:43:43.363Z,100354.22
2024-02-17T06:46:12.998Z,100360.06
2024-02-17T06:48:42.182Z,100352.94
2024-02-17T06:51:17.158Z,100359.69
2024-02-17T06:53:49.003Z,100364.00
2024-02-17T06:56:31.122Z,100358.59
2024-02-17T06:58:59.700Z,100361.97
2024-02-17T07:01:29.003Z,100362.00
2024-02-17T07:04:01.358Z,100358.56
2024-02-17T07:06:31.080Z,100363.69
2024-02-17T07:09:00.161Z,100368.91
2024-02-17T07:11:29.797Z,100370.63
2024-02-17T07:14:01.320Z,100365.38
2024-02-17T07:16:36.045Z,100366.25
2024-02-17T07:19:05.228Z,100369.84
2024-02-17T07:21:35.922Z,100364.69
2024-02-17T07:24:08.007Z,100378.53
2024-02-17T07:26:44.970Z,100377.56
2024-02-17T07:29:16.600Z,100369.03
2024-02-17T07:31:47.862Z,100394.00
2024-02-17T07:34:17.652Z,100386.19
2024-02-17T07:36:49.452Z,100381.88
2024-02-17T07:39:42.290Z,100388.88
2024-02-17T07:42:11.033Z,100378.31
2024-02-17T07:44:42.108Z,100400.09
2024-02-17T07:47:11.147Z,100395.63
2024-02-17T07:49:40.315Z,100403.41
2024-02-17T07:52:18.516Z,100398.16
2024-02-17T07:54:47.640Z,100392.91
2024-02-17T07:57:18.954Z,100398.97
2024-02-17T07:59:53.321Z,100402.50
2024-02-17T08:02:24.570Z,100397.28
2024-02-17T08:04:56.049Z,100401.72
2024-02-17T08:07:26.285Z,100408.59
2024-02-17T08:09:55.315Z,100406.81
2024-02-17T08:12:36.668Z,100412.88
2024-02-17T08:15:16.267Z,100418.00
2024-02-17T08:17:45.976Z,100411.78
2024-02-17T08:20:14.933Z,100411.78
2024-02-17T08:22:45.680Z,100410.09
2024-02-17T08:25:14.471Z,100412.63
2024-02-17T08:27:45.257Z,100419.50
2024-02-17T08:30:14.805Z,100414.16
2024-02-17T08:32:44.503Z,100422.81
2024-02-17T08:35:17.181Z,100423.41
2024-02-17T08:37:48.006Z,100423.38
2024-02-17T08:40:17.503Z,100430.16
2024-02-17T08:42:47.542Z,100432.75
2024-02-17T08:45:22.303Z,100430.91
2024-02-17T08:47:52.450Z,100418.97
2024-02-17T08:50:27.568Z,100434.53
2024-02-17T08:52:59.542Z,100437.97
2024-02-17T08:55:29.251Z,100438.72
2024-02-17T08:57:58.415Z,100438.59
2024-02-17T09:00:27.735Z,100454.09
2024-02-17T09:02:57.457Z,100453.09
2024-02-17T09:05:25.951Z,100457.19
2024-02-17T09:07:54.877Z,100465.72
2024-02-17T09:10:25.939Z,100463.84
2024-02-17T09:12:58.190Z,100465.47
2024-02-17T09:15:27.864Z,100464.44
2024-02-17T09:17:56.472Z,100471.38
2024-02-17T09:20:24.999Z,100467.81
2024-02-17T09:22:55.807Z,100472.13
2024-02-17T09:25:27.088Z,100469.44
2024-02-17T09:27:55.851Z,100475.44
2024-02-17T09:30:26.700Z,100476.22
2024-02-17T09:32:58.816Z,100478.72
2024-02-17T09:35:37.881Z,100484.69
2024-02-17T09:38:06.775Z,100480.31
2024-02-17T09:40:36.877Z,100484.66
2024-02-17T09:43:06.431Z,100496.75
2024-02-17T09:45:35.274Z,100499.19
2024-02-17T09:48:05.003Z,100509.66
2024-02-17T09:50:34.491Z,100498.28
2024-02-17T09:53:04.634Z,100503.31
2024-02-17T09:55:37.326Z,100513.81
2024-02-17T09:58:08.597Z,100519.75
2024-02-17T10:00:41.303Z,100512.72
2024-02-17T10:03:10.754Z,100511.75
2024-02-17T10:05:39.341Z,100506.47
2024-02-17T10:08:08.990Z,100514.28
2024-02-17T10:10:37.742Z,100515.19
2024-02-17T10:13:08.747Z,100508.94
2024-02-17T10:15:40.709Z,100518.28
2024-02-17T10:18:09.729Z,100516.41
2024-02-17T10:20:39.458Z,100517.97
2024-02-17T10:23:09.547Z,100517.94
2024-02-17T10:25:39.906Z,100514.25
2024-02-17T10:28:10.089Z,100508.88
2024-02-17T10:30:44.437Z,100513.22
2024-02-17T10:33:17.363Z,100510.50
2024-02-17T10:35:49.722Z,100514.81
2024-02-17T10:38:20.131Z,100516.56
2024-02-17T10:40:48.952Z,100520.00
2024-02-17T10:43:19.689Z,100514.81
2024-02-17T10:45:57.940Z,100517.44
2024-02-17T10:48:29.317Z,100515.59
2024-02-17T10:50:58.679Z,100516.38
2024-02-17T10:53:33.220Z,100513.69
2024-02-17T10:56:02.625Z,100513.59
2024-02-17T10:58:36.988Z,100523.97
2024-02-17T11:01:09.637Z,100520.38
2024-02-17T11:03:43.814Z,100522.00
2024-02-17T11:06:17.299Z,100526.25
2024-02-17T11:08:48.136Z,100513.88
2024-02-17T11:11:30.171Z,100523.38
2024-02-17T11:14:01.737Z,100518.28
2024-02-17T11:16:37.131Z,100526.97
2024-02-17T11:19:13.090Z,100523.63
2024-02-17T11:21:48.444Z,100524.59
2024-02-17T11:24:19.853Z,100533.38
2024-02-17T11:26:48.677Z,100531.69
2024-02-17T11:29:32.371Z,100533.38
2024-02-17T11:32:02.722Z,100534.25
2024-02-17T11:34:32.980Z,100535.13
2024-02-17T11:37:03.557Z,100535.13
2024-02-17T11:39:36.823Z,100537.69
2024-02-17T11:42:08.433Z,100537.69
2024-02-17T11:44:41.793Z,100552.44
2024-02-17T11:47:10.750Z,100545.38
2024-02-17T11:49:39.830Z,100554.91
2024-02-17T11:52:09.932Z,100549.78
2024-02-17T11:54:44.436Z,100557.59
2024-02-17T11:57:15.381Z,100557.47
2024-02-17T11:59:54.127Z,100568.00
2024-02-17T12:02:30.051Z,100575.88
2024-02-17T12:04:59.618Z,100569.03
2024-02-17T12:07:31.783Z,100566.47
2024-02-17T12:10:01.717Z,100565.59
2024-02-17T12:12:40.187Z,100574.28
2024-02-17T12:15:14.977Z,100569.03
2024-02-17T12:17:47.450Z,100571.72
2024-02-17T12:20:18.009Z,100571.75
2024-02-17T12:22:49.139Z,100576.03
2024-02-17T12:25:20.429Z,100573.09
2024-02-17T12:27:51.721Z,100578.75
2024-02-17T12:30:23.415Z,100576.47
2024-02-17T12:33:09.435Z,100575.03
2024-02-17T12:35:46.918Z,100571.69
2024-02-17T12:38:20.659Z,100578.19
2024-02-17T12:40:50.361Z,100586.50
2024-02-17T12:43:23.368Z,100581.16
2024-02-17T12:45:54.328Z,100586.16
2024-02-17T12:48:23.636Z,100596.41
2024-02-17T12:50:52.427Z,100598.34
2024-02-17T12:53:24.662Z,100606.19
2024-02-17T12:55:55.382Z,100597.63
2024-02-17T12:58:24.767Z,100613.53
2024-02-17T13:00:55.696Z,100605.91
2024-02-17T13:03:26.131Z,100605.91
2024-02-17T13:05:55.376Z,100607.84
2024-02-17T13:08:24.078Z,100614.03
2024-02-17T13:10:54.024Z,100616.66
2024-02-17T13:13:23.362Z,100618.34
2024-02-17T13:15:52.885Z,100615.72
2024-02-17T13:18:28.061Z,100613.09
2024-02-17T13:20:57.984Z,100619.22
2024-02-17T13:23:27.035Z,100614.94
2024-02-17T13:25:56.086Z,100615.06
2024-02-17T13:28:25.686Z,100617.72
2024-02-17T13:30:58.944Z,100620.41
2024-02-17T13:33:29.694Z,100622.13
2024-02-17T13:35:58.896Z,100615.16
2024-02-17T13:38:30.758Z,100618.59
2024-02-17T13:41:00.467Z,100621.75
2024-02-17T13:43:29.905Z,100622.47
2024-02-17T13:46:01.833Z,100620.63
2024-02-17T13:48:32.351Z,100616.41
2024-02-17T13:51:01.188Z,100625.94
2024-02-17T13:53:30.945Z,100623.38
2024-02-17T13:56:01.073Z,100627.78
2024-02-17T13:58:30.109Z,100630.47
2024-02-17T14:00:59.175Z,100630.56
2024-02-17T14:03:28.137Z,100627.94
2024-02-17T14:06:01.062Z,100631.53
2024-02-17T14:08:30.018Z,100641.19
2024-02-17T14:11:00.781Z,100639.47
2024-02-17T14:13:32.368Z,100634.22
2024-02-17T14:16:04.325Z,100637.03
2024-02-17T14:18:33.120Z,100642.31
2024-02-17T14:21:03.816Z,100641.66
2024-02-17T14:23:32.501Z,100650.38
2024-02-17T14:26:01.397Z,100659.28
2024-02-17T14:28:30.818Z,100659.34
2024-02-17T14:31:00.145Z,100658.59
2024-02-17T14:33:29.879Z,100672.59
2024-02-17T14:35:59.177Z,100671.75
2024-02-17T14:38:28.898Z,100666.50
2024-02-17T14:40:57.775Z,100676.09
2024-02-17T14:43:26.504Z,100673.53
2024-02-17T14:45:55.085Z,100680.56
2024-02-17T14:48:24.471Z,100681.38
2024-02-17T14:50:53.177Z,100680.56
2024-02-17T14:53:23.099Z,100682.34
2024-02-17T14:55:54.774Z,100687.69
2024-02-17T14:58:23.555Z,100687.69
2024-02-17T15:00:52.038Z,100696.44
2024-02-17T15:03:22.190Z,100699.06
2024-02-17T15:05:52.578Z,100694.78
2024-02-17T15:08:22.428Z,100700.09
2024-02-17T15:10:51.241Z,100703.69
2024-02-17T15:13:22.920Z,100706.28
2024-02-17T15:15:53.739Z,100708.97
2024-02-17T15:18:26.639Z,100704.63
2024-02-17T15:20:55.826Z,100713.44
2024-02-17T15:23:25.259Z,100711.78
2024-02-17T15:25:54.188Z,100711.78
2024-02-17T15:28:24.006Z,100715.34
2024-02-17T15:30:58.688Z,100716.31
2024-02-17T15:33:29.378Z,100713.84
2024-02-17T15:35:58.202Z,100716.63
2024-02-17T15:38:29.574Z,100727.22
2024-02-17T15:41:00.388Z,100732.50
2024-02-17T15:43:33.651Z,100732.56
2024-02-17T15:46:02.909Z,100729.09
2024-02-17T15:48:31.941Z,100731.75
2024-02-17T15:51:01.218Z,100734.38
2024-02-17T15:53:31.000Z,100743.16
2024-02-17T15:56:06.355Z,100736.34
2024-02-17T15:58:39.475Z,100750.28
2024-02-17T16:01:09.222Z,100747.84
2024-02-17T16:03:38.156Z,100760.00
2024-02-17T16:06:10.898Z,100763.59
2024-02-17T16:08:41.316Z,100770.59
2024-02-17T16:11:14.047Z,100769.69
2024-02-17T16:13:49.449Z,100775.72
2024-02-17T16:16:19.098Z,100779.22
2024-02-17T16:18:51.448Z,100780.19
2024-02-17T16:21:24.471Z,100788.84
2024-02-17T16:23:54.024Z,100792.38
2024-02-17T16:26:27.110Z,100804.56
2024-02-17T16:29:03.094Z,100802.97
2024-02-17T16:31:40.677Z,100809.16
2024-02-17T16:34:13.403Z,100816.31
2024-02-17T16:36:45.008Z,100832.16
2024-02-17T16:39:15.911Z,100836.56
2024-02-17T16:41:44.203Z,100839.34
2024-02-17T16:44:15.453Z,100846.34
2024-02-17T16:46:43.778Z,100849.97
2024-02-17T16:49:14.054Z,100848.34
2024-02-17T16:51:43.189Z,100859.91
2024-02-17T16:54:12.124Z,100867.06
2024-02-17T16:56:40.237Z,100881.22
2024-02-17T16:59:11.356Z,100888.56
2024-02-17T17:01:41.536Z,100893.88
2024-02-17T17:04:17.295Z,100893.19
2024-02-17T17:06:46.038Z,100897.09
2024-02-17T17:09:14.544Z,100913.94
2024-02-17T17:11:43.981Z,100926.38
2024-02-17T17:14:12.237Z,100924.91
2024-02-17T17:16:43.207Z,100920.91
2024-02-17T17:19:11.985Z,100935.03
2024-02-17T17:21:40.160Z,100933.44
2024-02-17T17:24:08.621Z,100938.81
2024-02-17T17:26:46.832Z,100937.16
2024-02-17T17:29:19.255Z,100940.78
2024-02-17T17:31:49.482Z,100944.34
2024-02-17T17:34:18.739Z,100947.03
2024-02-17T17:36:48.088Z,100958.41
2024-02-17T17:39:16.790Z,100957.63
2024-02-17T17:41:45.316Z,100951.50
2024-02-17T17:44:13.756Z,100968.16
2024-02-17T17:46:42.125Z,100963.06
2024-02-17T17:49:11.744Z,100973.59
2024-02-17T17:51:40.397Z,100979.75
2024-02-17T17:54:08.637Z,100970.22
2024-02-17T17:56:37.200Z,100975.50
2024-02-17T17:59:05.411Z,100981.66
2024-02-17T18:01:36.686Z,100991.31
2024-02-17T18:04:05.527Z,100984.38
2024-02-17T18:06:36.116Z,100993.16
2024-02-17T18:09:04.858Z,100996.69
2024-02-17T18:11:33.166Z,100996.69
2024-02-17T18:14:01.688Z,101007.16
2024-02-17T18:16:30.029Z,101024.53
2024-02-17T18:18:59.367Z,101016.69
2024-02-17T18:21:28.232Z,101022.84
2024-02-17T18:23:58.069Z,101026.34
2024-02-17T18:26:26.960Z,101037.72
2024-02-17T18:28:55.996Z,101035.97
2024-02-17T18:31:25.257Z,101047.31
2024-02-17T18:33:54.171Z,101055.28
2024-02-17T18:36:23.914Z,101056.25
2024-02-17T18:38:52.471Z,101059.84
2024-02-17T18:41:22.246Z,101053.94
2024-02-17T18:43:50.796Z,101065.28
2024-02-17T18:46:23.026Z,101067.06
2024-02-17T18:48:53.268Z,101068.91
2024-02-17T18:51:22.719Z,101076.81
2024-02-17T18:53:51.146Z,101077.75
2024-02-17T18:56:19.578Z,101082.13
2024-02-17T18:58:52.015Z,101081.28
2024-02-17T19:01:20.675Z,101096.94
2024-02-17T19:03:53.116Z,101103.09
2024-02-17T19:06:23.792Z,101111.78
2024-02-17T19:08:53.290Z,101105.72
2024-02-17T19:11:21.908Z,101117.84
2024-02-17T19:13:51.424Z,101115.25
2024-02-17T19:16:20.304Z,101117.91
2024-02-17T19:18:49.101Z,101117.91
2024-02-17T19:21:20.678Z,101124.06
2024-02-17T19:23:53.028Z,101124.06
2024-02-17T19:26:21.844Z,101131.09
2024-02-17T19:28:52.429Z,101133.75
2024-02-17T19:31:20.881Z,101132.91
2024-02-17T19:33:52.384Z,101137.28
2024-02-17T19:36:21.815Z,101132.13
2024-02-17T19:38:52.645Z,101130.41
2024-02-17T19:41:21.398Z,101144.31
2024-02-17T19:43:50.855Z,101145.19
2024-02-17T19:46:24.166Z,101143.41
2024-02-17T19:48:52.626Z,101149.56
2024-02-17T19:51:21.996Z,101160.00
2024-02-17T19:54:03.334Z,101156.53
2024-02-17T19:56:32.557Z,101160.06
2024-02-17T19:59:03.605Z,101171.34
2024-02-17T20:01:36.655Z,101174.88
2024-02-17T20:04:11.812Z,101180.09
2024-02-17T20:06:40.582Z,101180.97
2024-02-17T20:09:09.540Z,101186.22
2024-02-17T20:11:38.545Z,101189.72
2024-02-17T20:14:11.167Z,101184.50
2024-02-17T20:16:44.812Z,101192.41
2024-02-17T20:19:15.852Z,101190.75
2024-02-17T20:21:48.246Z,101197.69
2024-02-17T20:24:23.324Z,101199.41
2024-02-17T20:26:52.112Z,101205.53
2024-02-17T20:29:20.516Z,101205.56
2024-02-17T20:31:51.815Z,101200.41
2024-02-17T20:34:20.518Z,101198.69
2024-02-17T20:36:53.553Z,101209.13
2024-02-17T20:39:22.607Z,101212.56
2024-02-17T20:41:54.649Z,101211.69
2024-02-17T20:44:25.363Z,101216.03
2024-02-17T20:47:08.774Z,101217.81
2024-02-17T20:49:37.520Z,101216.97
2024-02-17T20:52:06.700Z,101221.38
2024-02-17T20:54:41.078Z,101224.00
2024-02-17T20:57:12.328Z,101232.66
2024-02-17T20:59:41.424Z,101242.28
2024-02-17T21:02:11.087Z,101243.19
2024-02-17T21:04:39.492Z,101248.44
2024-02-17T21:07:09.554Z,101249.38
2024-02-17T21:09:38.623Z,101254.63
2024-02-17T21:12:08.263Z,101251.19
2024-02-17T21:14:36.414Z,101261.63
2024-02-17T21:17:05.204Z,101255.63
2024-02-17T21:19:38.966Z,101266.97
2024-02-17T21:22:07.449Z,101265.34
2024-02-17T21:24:39.450Z,101267.97
2024-02-17T21:27:08.153Z,101262.78
2024-02-17T21:29:36.939Z,101270.66
2024-02-17T21:32:06.381Z,101270.69
2024-02-17T21:34:36.378Z,101269.84
2024-02-17T21:37:05.054Z,101272.47
2024-02-17T21:39:33.940Z,101275.97
2024-02-17T21:42:04.102Z,101282.91
2024-02-17T21:44:33.126Z,101285.56
2024-02-17T21:47:01.980Z,101298.56
2024-02-17T21:49:31.552Z,101292.50
2024-02-17T21:52:01.695Z,101294.28
2024-02-17T21:54:30.460Z,101294.31
2024-02-17T21:56:59.401Z,101299.56
2024-02-17T21:59:27.853Z,101309.13
2024-02-17T22:02:05.251Z,101306.59
2024-02-17T22:04:37.024Z,101303.16
2024-02-17T22:07:07.469Z,101308.44
2024-02-17T22:09:35.699Z,101311.91
2024-02-17T22:12:04.469Z,101320.59
2024-02-17T22:14:32.992Z,101326.69
2024-02-17T22:17:05.018Z,101327.56
2024-02-17T22:19:33.192Z,101333.63
2024-02-17T22:22:02.576Z,101337.09
2024-02-17T22:24:35.127Z,101336.22
2024-02-17T22:27:03.797Z,101344.94
2024-02-17T22:29:33.793Z,101337.13
2024-02-17T22:32:02.906Z,101344.06
2024-02-17T22:34:31.598Z,101347.53
2024-02-17T22:37:00.656Z,101351.03
2024-02-17T22:39:29.398Z,101338.00
2024-02-17T22:42:02.998Z,101340.59
2024-02-17T22:44:31.546Z,101348.44
2024-02-17T22:47:00.752Z,101351.03
2024-02-17T22:49:30.525Z,101347.59
2024-02-17T22:51:59.378Z,101361.50
2024-02-17T22:54:28.301Z,101368.44
2024-02-17T22:56:56.809Z,101366.72
2024-02-17T22:59:26.972Z,101357.16
2024-02-17T23:01:58.662Z,101360.63
2024-02-17T23:04:27.834Z,101360.63
2024-02-17T23:06:59.996Z,101363.22
2024-02-17T23:09:29.223Z,101370.16
2024-02-17T23:11:57.386Z,101374.53
2024-02-17T23:14:27.924Z,101383.22
2024-02-17T23:16:56.910Z,101384.94
2024-02-17T23:19:26.047Z,101395.38
2024-02-17T23:21:54.874Z,101396.25
2024-02-17T23:24:26.194Z,101394.59
2024-02-17T23:26:56.406Z,101400.69
2024-02-17T23:29:25.281Z,101398.13
2024-02-17T23:31:56.935Z,101412.91
2024-02-17T23:34:25.599Z,101413.78
2024-02-17T23:36:58.330Z,101417.25
2024-02-17T23:39:27.501Z,101422.47
2024-02-17T23:41:56.301Z,101427.69
2024-02-17T23:44:25.115Z,101423.41
2024-02-17T23:46:55.862Z,101425.16
2024-02-17T23:49:25.625Z,101439.03
2024-02-17T23:51:54.208Z,101443.38
2024-02-17T23:54:22.688Z,101448.59
2024-02-17T23:56:52.945Z,101459.00
2024-02-17T23:59:23.438Z,101457.28
